Time;durP1;ratioP1;P1;durP2;ratioP2;P2;SDS_P1;SDS_P2;PMS_P1;PMS_P2;Temp;Humidity;BMP_temperature;BMP_pressure;BME280_temperature;BME280_humidity;BME280_pressure;Samples;Min_cycle;Max_cycle;Signal;HPM_P1;HPM_P2
2022/04/30 04:11:11;;;;;;;43.90;28.50;;;;;;;4.85;59.11;99739.66;105627;1273;96377;-69
2022/04/30 04:19:14;;;;;;;37.30;24.70;;;;;;;4.79;59.72;99735.14;105599;1283;97988;-69
2022/04/30 04:21:42;;;;;;;38.40;25.00;;;;;;;4.83;59.65;99735.69;105629;1283;108392;-70
2022/04/30 04:26:56;;;;;;;34.10;21.10;;;;;;;4.94;59.92;99739.33;105340;1284;98033;-70
2022/04/30 04:29:24;;;;;;;35.30;21.80;;;;;;;4.95;59.58;99734.34;105668;1283;111460;-68
2022/04/30 04:31:52;;;;;;;34.40;22.40;;;;;;;4.94;59.61;99733.17;105635;1283;97969;-68
2022/04/30 04:34:20;;;;;;;39.40;25.10;;;;;;;4.92;59.59;99735.18;105387;1282;107853;-68
2022/04/30 04:36:48;;;;;;;36.60;22.30;;;;;;;4.89;60.00;99733.68;105614;1282;97970;-67
2022/04/30 04:39:17;;;;;;;34.70;22.10;;;;;;;4.93;60.05;99737.25;105568;1282;97878;-70
2022/04/30 04:41:45;;;;;;;37.10;22.70;;;;;;;4.98;60.10;99736.34;105622;1283;112036;-67
2022/04/30 04:44:13;;;;;;;36.30;23.40;;;;;;;5.05;60.22;99732.04;105478;1282;96456;-68
2022/04/30 04:46:43;;;;;;;37.30;23.40;;;;;;;5.12;60.06;99733.34;105591;1282;108337;-70
2022/04/30 04:49:13;;;;;;;33.40;22.30;;;;;;;5.19;60.32;99739.58;105556;1282;97973;-68
2022/04/30 04:51:42;;;;;;;37.90;22.60;;;;;;;5.29;60.46;99739.55;105631;1283;97976;-68
2022/04/30 04:54:10;;;;;;;37.80;22.70;;;;;;;5.38;60.76;99736.90;105362;1282;111391;-69
2022/04/30 04:56:39;;;;;;;34.90;20.90;;;;;;;5.47;60.83;99731.09;105638;1283;99156;-69
2022/04/30 04:59:08;;;;;;;34.40;22.30;;;;;;;5.58;60.71;99731.67;105633;1283;109178;-68
2022/04/30 05:01:38;;;;;;;37.20;21.40;;;;;;;5.70;60.90;99730.30;105643;1282;97914;-68
2022/04/30 05:04:10;;;;;;;32.80;21.40;;;;;;;5.81;61.06;99732.66;105623;1283;96336;-69
2022/04/30 05:06:39;;;;;;;34.60;20.90;;;;;;;5.94;61.14;99731.95;105353;1283;111853;-69
2022/04/30 05:09:07;;;;;;;35.00;21.50;;;;;;;6.06;61.18;99732.16;105349;1282;96381;-69
2022/04/30 05:11:35;;;;;;;34.90;21.40;;;;;;;6.19;61.16;99732.30;105607;1283;108287;-69
2022/04/30 05:14:04;;;;;;;35.50;21.10;;;;;;;6.32;61.45;99734.73;105594;1283;97893;-69
2022/04/30 05:16:33;;;;;;;32.00;19.50;;;;;;;6.43;61.51;99731.98;105631;1283;97896;-68
2022/04/30 05:19:04;;;;;;;30.70;19.80;;;;;;;6.53;61.34;99731.30;105372;1281;111351;-68
2022/04/30 05:21:32;;;;;;;35.10;21.00;;;;;;;6.63;61.43;99733.86;105586;1283;97755;-70
2022/04/30 05:24:00;;;;;;;32.20;20.10;;;;;;;6.73;61.50;99735.90;105284;1282;107882;-69
2022/04/30 05:26:28;;;;;;;31.20;20.40;;;;;;;6.82;61.53;99734.59;105603;1283;95981;-69
2022/04/30 05:28:56;;;;;;;33.90;21.50;;;;;;;6.92;61.52;99732.73;105621;1282;98090;-69
2022/04/30 05:31:24;;;;;;;31.50;19.90;;;;;;;7.01;61.47;99731.77;105668;1283;112228;-69
2022/04/30 05:33:53;;;;;;;34.00;21.00;;;;;;;7.11;61.57;99731.85;105642;1281;97830;-69
2022/04/30 05:36:21;;;;;;;33.90;20.00;;;;;;;7.21;61.80;99736.30;105319;1284;108367;-70
2022/04/30 05:38:51;;;;;;;30.70;18.30;;;;;;;7.30;61.52;99737.96;105387;1283;96506;-70
2022/04/30 05:41:19;;;;;;;31.10;19.80;;;;;;;7.42;61.48;99738.30;105593;1283;97900;-69
2022/04/30 05:43:53;;;;;;;28.80;18.50;;;;;;;7.54;61.39;99740.50;105612;1283;111351;-70
2022/04/30 05:46:21;;;;;;;30.90;19.00;;;;;;;7.65;61.62;99742.48;105642;1283;97926;-70
2022/04/30 05:48:49;;;;;;;31.40;19.40;;;;;;;7.74;61.38;99743.40;105591;1283;107664;-70
2022/04/30 05:51:16;;;;;;;31.20;20.00;;;;;;;7.84;61.73;99742.73;105540;1283;98430;-68
2022/04/30 05:53:44;;;;;;;33.50;19.90;;;;;;;7.95;61.75;99740.98;105468;1282;98074;-69
2022/04/30 05:56:12;;;;;;;31.10;19.40;;;;;;;8.05;61.80;99741.70;105554;1282;111890;-71
2022/04/30 05:58:40;;;;;;;29.80;18.90;;;;;;;8.14;61.89;99745.30;105581;1283;97891;-70
2022/04/30 06:01:09;;;;;;;30.60;18.10;;;;;;;8.24;61.77;99744.27;105623;1282;107786;-71
2022/04/30 06:03:39;;;;;;;28.70;18.00;;;;;;;8.35;61.77;99744.58;105633;1281;97873;-71
2022/04/30 06:06:07;;;;;;;33.10;19.40;;;;;;;8.43;61.82;99743.60;105693;1283;97873;-67
2022/04/30 06:08:35;;;;;;;29.80;18.90;;;;;;;8.53;61.96;99743.64;105735;1283;111613;-69
2022/04/30 06:11:03;;;;;;;32.90;20.20;;;;;;;8.63;61.93;99741.55;105636;1283;97973;-69
2022/04/30 06:13:32;;;;;;;32.90;20.80;;;;;;;8.72;61.92;99741.23;105617;1282;108524;-68
2022/04/30 06:16:00;;;;;;;31.50;18.70;;;;;;;8.80;62.03;99738.30;105696;1282;97977;-71
2022/04/30 06:18:29;;;;;;;31.20;19.60;;;;;;;8.88;62.16;99741.42;105713;1283;96399;-70
2022/04/30 06:20:57;;;;;;;32.80;19.70;;;;;;;8.96;62.15;99741.15;105564;1283;111396;-70
2022/04/30 06:23:24;;;;;;;32.60;19.00;;;;;;;9.04;61.98;99736.30;105537;1282;97983;-70
2022/04/30 06:25:53;;;;;;;37.00;20.50;;;;;;;9.12;61.88;99731.80;105694;1283;108860;-68
2022/04/30 06:28:21;;;;;;;32.10;19.50;;;;;;;9.20;61.95;99737.52;105620;1283;97541;-69
2022/04/30 06:30:49;;;;;;;30.40;18.80;;;;;;;9.28;61.99;99735.86;105423;1282;97932;-69
2022/04/30 06:33:17;;;;;;;30.70;19.20;;;;;;;9.35;61.86;99730.67;105581;1283;111819;-69
2022/04/30 06:35:45;;;;;;;33.50;20.20;;;;;;;9.44;62.00;99730.00;105564;1283;97870;-70
2022/04/30 06:38:13;;;;;;;28.10;18.30;;;;;;;9.52;61.90;99730.77;105635;1283;107434;-71
2022/04/30 06:40:42;;;;;;;29.60;17.80;;;;;;;9.61;61.95;99729.05;105443;1282;97911;-69
2022/04/30 06:43:10;;;;;;;29.90;18.50;;;;;;;9.69;61.93;99727.13;105689;1283;97891;-71
2022/04/30 06:45:37;;;;;;;29.60;17.90;;;;;;;9.76;61.88;99723.56;105470;1282;111593;-68
2022/04/30 06:48:06;;;;;;;28.90;17.90;;;;;;;9.84;61.96;99723.44;105534;1281;97001;-68
2022/04/30 06:50:35;;;;;;;29.20;18.00;;;;;;;9.94;62.03;99721.98;107114;1282;108251;-67
2022/04/30 06:58:53;;;;;;;27.40;16.00;;;;;;;10.25;61.88;99723.27;105381;1281;112101;-68
2022/04/30 07:01:26;;;;;;;30.40;16.90;;;;;;;10.39;61.87;99723.56;105384;1281;97839;-68
2022/04/30 07:04:01;;;;;;;27.70;15.90;;;;;;;10.52;61.93;99721.88;105442;1282;108315;-69
2022/04/30 07:06:35;;;;;;;27.70;16.60;;;;;;;10.69;61.88;99724.34;105606;1281;98570;-69
2022/04/30 07:09:06;;;;;;;26.90;15.50;;;;;;;11.10;61.72;99726.42;105683;1281;97889;-68
2022/04/30 07:11:35;;;;;;;27.50;15.20;;;;;;;11.77;61.75;99719.70;105561;1281;112036;-74
2022/04/30 07:14:03;;;;;;;24.00;13.50;;;;;;;13.09;60.66;99713.92;105399;1282;95954;-73
2022/04/30 07:16:31;;;;;;;24.80;13.80;;;;;;;14.84;59.32;99714.14;105641;1281;107816;-71
2022/04/30 07:19:02;;;;;;;25.80;13.50;;;;;;;16.07;59.22;99703.02;105372;1283;97861;-68
2022/04/30 07:21:32;;;;;;;23.30;12.40;;;;;;;16.84;59.52;99701.52;105740;1281;98006;-69
2022/04/30 07:24:01;;;;;;;22.10;12.20;;;;;;;17.32;60.19;99702.00;105640;1281;112027;-69
2022/04/30 07:26:29;;;;;;;24.90;12.30;;;;;;;17.82;59.92;99704.09;105634;1282;97863;-69
2022/04/30 07:28:57;;;;;;;22.30;12.00;;;;;;;18.27;60.08;99703.27;105540;1282;107553;-69
2022/04/30 07:31:27;;;;;;;20.50;11.20;;;;;;;18.79;60.16;99701.91;105578;1282;98704;-69
2022/04/30 07:33:57;;;;;;;23.70;12.00;;;;;;;19.31;59.89;99701.27;105583;1282;97993;-69
2022/04/30 07:36:26;;;;;;;20.40;11.20;;;;;;;20.02;59.82;99696.47;105658;1283;111961;-67
2022/04/30 07:38:59;;;;;;;20.10;10.20;;;;;;;21.15;58.98;99695.06;105516;1283;97718;-68
2022/04/30 07:41:32;;;;;;;20.80;10.20;;;;;;;22.21;58.63;99696.38;105774;1283;107807;-69
2022/04/30 07:44:00;;;;;;;18.40;9.90;;;;;;;23.20;58.33;99697.00;105747;1283;98005;-69
2022/04/30 07:46:29;;;;;;;17.70;8.80;;;;;;;24.14;57.78;99691.58;105771;1283;97991;-70
2022/04/30 07:49:00;;;;;;;18.60;9.40;;;;;;;25.04;57.50;99689.66;105731;1283;111334;-69
2022/04/30 07:51:38;;;;;;;18.10;10.00;;;;;;;25.93;57.60;99685.59;105773;1283;96337;-71
2022/04/30 07:54:07;;;;;;;21.10;10.30;;;;;;;27.05;57.07;99684.64;105729;1283;107682;-70
2022/04/30 07:56:36;;;;;;;16.70;8.20;;;;;;;28.05;56.94;99683.50;105760;1281;95970;-71
2022/04/30 07:59:05;;;;;;;15.80;8.70;;;;;;;29.07;56.55;99678.53;105655;1283;97989;-69
2022/04/30 08:01:33;;;;;;;16.30;8.50;;;;;;;29.92;55.99;99673.35;105608;1283;111137;-69
2022/04/30 08:04:05;;;;;;;17.20;8.90;;;;;;;30.44;54.97;99669.92;105286;1281;97945;-76
2022/04/30 08:06:33;;;;;;;18.10;9.30;;;;;;;30.93;54.81;99671.70;105561;1282;107737;-69
2022/04/30 08:09:01;;;;;;;15.90;8.50;;;;;;;31.36;54.28;99672.84;105629;1283;98014;-68
2022/04/30 08:11:28;;;;;;;14.90;8.00;;;;;;;31.76;54.02;99672.83;105619;1283;97894;-70
2022/04/30 08:13:57;;;;;;;14.30;7.30;;;;;;;32.13;53.98;99674.06;105636;1283;112049;-68
2022/04/30 08:16:28;;;;;;;;;;;;;;;32.57;53.01;99672.33;105740;1283;97960;-71
2022/04/30 08:18:59;;;;;;;14.40;6.90;;;;;;;32.72;52.47;99670.89;105660;1283;107795;-69
2022/04/30 08:21:27;;;;;;;14.40;6.90;;;;;;;32.62;51.67;99675.16;105627;1283;96367;-66
2022/04/30 08:23:55;;;;;;;11.90;6.70;;;;;;;32.58;51.44;99672.36;105623;1282;95401;-68
2022/04/30 08:26:23;;;;;;;12.00;6.90;;;;;;;32.84;51.39;99673.41;105351;1283;112145;-68
2022/04/30 08:28:53;;;;;;;13.10;6.90;;;;;;;33.14;50.80;99674.73;105519;1284;95732;-68
2022/04/30 08:31:21;;;;;;;12.80;6.50;;;;;;;33.39;50.45;99675.48;105542;1282;108390;-67
2022/04/30 08:33:53;;;;;;;13.30;6.80;;;;;;;33.61;49.48;99674.77;105675;1281;97863;-77
2022/04/30 08:36:20;;;;;;;12.50;6.50;;;;;;;33.72;48.92;99671.69;105543;1281;97906;-71
2022/04/30 08:38:48;;;;;;;9.60;5.70;;;;;;;33.56;48.40;99670.10;105627;1281;111368;-77
2022/04/30 08:41:16;;;;;;;14.00;6.00;;;;;;;33.07;47.35;99671.88;105541;1281;98363;-78
2022/04/30 08:43:51;;;;;;;10.90;6.00;;;;;;;33.09;47.56;99665.04;105507;1281;107767;-69
2022/04/30 08:46:20;;;;;;;10.40;5.30;;;;;;;33.18;47.10;99663.84;105269;1281;98108;-70
2022/04/30 08:48:48;;;;;;;9.40;4.80;;;;;;;33.02;46.15;99662.70;105675;1281;97973;-72
2022/04/30 08:51:18;;;;;;;12.80;5.70;;;;;;;32.88;45.97;99657.58;105614;1283;111425;-79
2022/04/30 08:53:45;;;;;;;8.90;4.50;;;;;;;32.68;44.73;99662.71;105758;1281;98471;-69
2022/04/30 08:56:13;;;;;;;8.40;4.30;;;;;;;32.05;43.56;99662.94;105639;1281;107748;-69
2022/04/30 08:58:43;;;;;;;8.20;4.30;;;;;;;31.16;43.24;99667.55;105435;1281;98040;-69
2022/04/30 09:01:11;;;;;;;8.00;4.30;;;;;;;30.02;43.52;99665.33;105557;1285;97874;-68
2022/04/30 09:03:39;;;;;;;11.50;4.10;;;;;;;29.57;43.02;99663.30;105199;1286;111997;-68
2022/04/30 09:06:07;;;;;;;10.40;4.20;;;;;;;29.21;42.72;99658.67;105489;1283;98511;-68
2022/04/30 09:08:36;;;;;;;14.80;5.10;;;;;;;29.43;43.02;99656.48;105528;1282;108479;-70
2022/04/30 09:11:08;;;;;;;12.50;4.40;;;;;;;29.96;42.92;99651.39;105567;1284;97885;-69
2022/04/30 09:13:44;;;;;;;16.80;7.50;;;;;;;30.42;42.53;99647.77;105731;1282;97944;-69
2022/04/30 09:16:19;;;;;;;12.50;5.50;;;;;;;30.96;42.30;99653.55;105616;1283;112180;-68
2022/04/30 09:18:50;;;;;;;9.40;5.00;;;;;;;31.38;41.31;99651.08;105624;1283;95754;-68
2022/04/30 09:21:19;;;;;;;9.60;4.40;;;;;;;31.06;40.84;99653.84;105398;1283;108458;-67
2022/04/30 09:23:48;;;;;;;7.30;4.30;;;;;;;30.69;40.56;99649.16;105566;1284;99098;-69
2022/04/30 09:26:16;;;;;;;9.90;4.40;;;;;;;30.38;40.53;99652.02;105656;1283;98036;-71
2022/04/30 09:28:46;;;;;;;8.30;4.50;;;;;;;30.14;40.34;99651.22;105598;1283;112064;-68
2022/04/30 09:31:16;;;;;;;8.40;4.30;;;;;;;29.99;39.88;99644.20;105453;1284;96316;-68
2022/04/30 09:33:55;;;;;;;8.70;4.40;;;;;;;30.28;40.05;99642.13;105637;1284;107787;-67
2022/04/30 09:39:13;;;;;;;11.10;4.20;;;;;;;29.96;39.52;99635.56;105559;1284;97968;-67
2022/04/30 09:41:41;;;;;;;12.40;4.70;;;;;;;29.67;39.39;99632.13;105705;1284;111427;-68
2022/04/30 09:44:12;;;;;;;9.50;4.30;;;;;;;29.34;39.44;99633.48;105747;1281;98437;-67
2022/04/30 09:46:42;;;;;;;6.00;3.70;;;;;;;29.40;38.95;99629.53;105712;1284;107652;-67
2022/04/30 09:54:45;;;;;;;5.70;3.80;;;;;;;28.03;37.08;99629.66;105620;1284;110966;-68
2022/04/30 09:57:15;;;;;;;8.70;3.90;;;;;;;27.65;36.86;99633.09;105640;1284;95708;-68
2022/04/30 09:59:46;;;;;;;9.20;3.80;;;;;;;27.20;37.04;99627.30;105612;1283;108538;-71
2022/04/30 10:02:19;;;;;;;8.70;4.20;;;;;;;26.86;36.61;99627.06;105604;1283;99044;-68
2022/04/30 10:04:47;;;;;;;7.30;4.10;;;;;;;26.34;36.48;99626.99;105659;1284;95285;-68
2022/04/30 10:07:20;;;;;;;8.00;3.90;;;;;;;25.79;36.27;99622.02;105669;1284;111811;-67
2022/04/30 10:10:13;;;;;;;7.40;3.60;;;;;;;25.44;36.01;99618.98;105723;1283;95234;-67
2022/04/30 10:12:46;;;;;;;;;;;;;;;25.01;35.90;99622.48;105695;1283;107729;-68
2022/04/30 10:15:20;;;;;;;;;;;;;;;24.43;35.71;99621.70;105635;1284;96438;-64
2022/04/30 10:17:57;;;;;;;8.10;4.00;;;;;;;24.05;35.57;99619.49;105679;1284;97956;-67
2022/04/30 10:20:34;;;;;;;8.60;4.60;;;;;;;23.69;35.24;99621.56;105580;1284;111383;-67
2022/04/30 10:23:05;;;;;;;8.20;4.10;;;;;;;23.54;35.47;99615.13;105542;1284;98180;-68
2022/04/30 10:25:43;;;;;;;8.50;4.20;;;;;;;23.38;35.37;99606.79;105389;1283;107516;-68
2022/04/30 10:28:21;;;;;;;8.50;4.20;;;;;;;23.14;34.94;99607.64;105613;1284;97989;-69
2022/04/30 10:31:01;;;;;;;10.00;4.60;;;;;;;22.88;34.79;99609.73;105576;1283;97865;-66
2022/04/30 10:33:31;;;;;;;10.30;4.00;;;;;;;22.69;34.90;99614.91;105575;1283;112069;-66
2022/04/30 10:36:09;;;;;;;8.40;4.00;;;;;;;22.42;34.83;99612.21;105604;1281;96210;-69
2022/04/30 10:38:39;;;;;;;9.30;4.40;;;;;;;22.04;34.36;99607.58;105695;1281;107859;-68
2022/04/30 10:41:09;;;;;;;8.50;3.90;;;;;;;21.79;34.29;99603.30;105619;1283;97860;-68
2022/04/30 10:43:40;;;;;;;7.70;3.90;;;;;;;21.71;34.46;99598.23;105587;1281;98564;-69
2022/04/30 10:46:23;;;;;;;11.10;4.10;;;;;;;21.68;34.30;99593.34;105593;1281;111456;-68
2022/04/30 10:48:53;;;;;;;8.90;4.10;;;;;;;21.58;34.22;99593.92;105633;1283;95620;-68
2022/04/30 10:51:42;;;;;;;9.00;4.40;;;;;;;21.37;34.24;99596.59;105457;1284;107663;-68
2022/04/30 10:54:18;;;;;;;6.90;4.30;;;;;;;21.18;34.20;99595.92;105810;1281;98093;-70
2022/04/30 10:57:04;;;;;;;16.80;4.80;;;;;;;20.95;34.05;99592.67;105516;1284;97953;-68
2022/04/30 10:59:33;;;;;;;8.30;4.00;;;;;;;20.74;33.78;99587.43;105636;1283;112094;-69
2022/04/30 11:02:01;;;;;;;8.10;4.10;;;;;;;20.71;33.92;99583.84;105460;1283;96248;-66
2022/04/30 11:04:30;;;;;;;9.40;4.30;;;;;;;20.66;33.88;99584.52;105363;1283;108496;-65
2022/04/30 11:07:01;;;;;;;8.90;4.50;;;;;;;20.64;33.94;99583.03;105616;1281;96777;-69
2022/04/30 11:09:30;;;;;;;8.20;4.10;;;;;;;20.62;33.80;99578.84;105702;1281;99037;-69
2022/04/30 11:11:58;;;;;;;7.70;3.90;;;;;;;20.60;33.93;99576.00;105611;1283;112040;-67
2022/04/30 11:14:30;;;;;;;7.40;4.00;;;;;;;20.53;33.84;99572.16;105571;1283;97992;-67
2022/04/30 11:16:57;;;;;;;10.30;4.70;;;;;;;20.48;33.85;99570.90;105648;1283;107646;-69
2022/04/30 11:19:25;;;;;;;11.80;4.80;;;;;;;20.44;33.93;99565.58;105722;1283;98371;-70
2022/04/30 11:21:55;;;;;;;14.60;5.10;;;;;;;20.42;33.92;99564.39;105753;1283;97983;-67
2022/04/30 11:24:29;;;;;;;14.50;5.00;;;;;;;20.40;34.02;99566.18;105692;1283;111556;-69
2022/04/30 11:27:00;;;;;;;10.90;4.60;;;;;;;20.41;34.04;99561.45;105636;1283;97589;-70
2022/04/30 11:29:28;;;;;;;10.40;4.70;;;;;;;20.38;33.92;99558.98;105575;1283;107572;-70
2022/04/30 11:31:58;;;;;;;14.10;5.10;;;;;;;20.34;33.84;99558.70;105537;1282;97885;-69
2022/04/30 11:34:27;;;;;;;11.50;5.10;;;;;;;20.32;33.81;99556.16;105621;1283;97943;-68
2022/04/30 11:36:59;;;;;;;11.60;4.60;;;;;;;20.29;33.90;99559.98;105683;1282;112002;-69
2022/04/30 11:39:29;;;;;;;12.10;5.10;;;;;;;20.22;33.86;99554.96;105626;1283;96417;-69
2022/04/30 11:41:59;;;;;;;10.10;4.30;;;;;;;20.13;33.85;99551.23;105425;1284;107787;-70
2022/04/30 11:44:27;;;;;;;9.40;4.80;;;;;;;20.02;33.58;99550.72;105383;1283;97896;-69
2022/04/30 11:46:56;;;;;;;10.90;4.30;;;;;;;19.76;33.35;99547.45;105620;1283;97945;-70
2022/04/30 11:49:27;;;;;;;9.80;4.30;;;;;;;19.59;33.61;99543.23;105637;1283;111839;-69
2022/04/30 11:52:14;;;;;;;9.10;4.40;;;;;;;19.57;33.61;99541.26;105637;1283;95195;-68
2022/04/30 11:54:43;;;;;;;9.90;4.40;;;;;;;19.54;33.54;99540.64;105586;1283;107718;-68
2022/04/30 11:57:15;;;;;;;14.40;4.40;;;;;;;19.52;33.38;99539.48;105597;1282;97915;-69
2022/04/30 11:59:43;;;;;;;9.70;4.20;;;;;;;19.50;33.69;99535.52;105597;1282;97908;-68
2022/04/30 12:02:15;;;;;;;12.00;4.80;;;;;;;19.52;33.77;99536.77;105436;1282;111438;-69
2022/04/30 12:04:44;;;;;;;9.70;4.50;;;;;;;19.53;33.63;99533.65;105448;1282;97906;-69
2022/04/30 12:07:13;;;;;;;10.00;4.60;;;;;;;19.52;33.62;99529.02;105403;1282;108426;-69
2022/04/30 12:09:50;;;;;;;9.70;4.50;;;;;;;19.53;33.57;99527.98;105976;1282;97912;-68
2022/04/30 12:12:23;;;;;;;10.80;4.10;;;;;;;19.52;33.57;99521.84;105519;1283;99131;-68
2022/04/30 12:14:57;;;;;;;10.50;4.80;;;;;;;19.50;33.61;99523.86;105569;1282;111222;-72
2022/04/30 12:17:30;;;;;;;10.20;4.80;;;;;;;19.53;33.33;99521.94;105435;1282;97898;-67
2022/04/30 12:25:49;;;;;;;10.90;4.50;;;;;;;19.56;33.32;99516.54;105676;1282;97876;-70
2022/04/30 12:28:17;;;;;;;9.70;4.50;;;;;;;19.62;33.41;99513.05;105495;1284;111467;-71
2022/04/30 12:30:51;;;;;;;11.40;4.60;;;;;;;19.69;33.54;99510.20;105532;1284;97891;-71
2022/04/30 12:33:22;;;;;;;10.30;5.00;;;;;;;19.72;33.44;99507.59;105592;1282;107828;-69
2022/04/30 12:35:55;;;;;;;13.00;5.20;;;;;;;19.73;33.40;99507.59;105514;1283;98095;-70
2022/04/30 12:38:31;;;;;;;10.80;5.10;;;;;;;19.65;33.17;99504.69;105564;1282;97924;-67
2022/04/30 12:41:00;;;;;;;13.40;5.80;;;;;;;19.47;32.86;99504.05;105662;1283;111421;-70
2022/04/30 12:43:31;;;;;;;13.00;5.00;;;;;;;19.26;32.97;99499.80;105518;1282;97641;-69
2022/04/30 12:46:00;;;;;;;11.00;4.90;;;;;;;19.25;33.08;99498.11;105577;1283;107786;-68
2022/04/30 12:48:29;;;;;;;14.10;5.60;;;;;;;19.29;33.11;99500.10;105721;1283;98030;-70
2022/04/30 12:51:04;;;;;;;14.90;5.10;;;;;;;19.27;33.10;99497.42;105571;1282;97971;-70
2022/04/30 12:53:33;;;;;;;15.20;5.00;;;;;;;19.31;33.27;99497.87;105618;1283;111132;-70
2022/04/30 12:56:01;;;;;;;9.50;4.80;;;;;;;19.37;33.15;99495.52;105661;1283;97963;-70
2022/04/30 12:58:28;;;;;;;9.00;4.70;;;;;;;19.39;33.16;99492.58;105609;1281;107783;-70
2022/04/30 13:00:56;;;;;;;9.90;4.30;;;;;;;19.44;33.30;99492.95;105549;1282;97861;-70
2022/04/30 13:03:25;;;;;;;11.10;5.20;;;;;;;19.49;33.21;99492.95;105606;1283;95717;-67
2022/04/30 13:05:54;;;;;;;9.10;4.80;;;;;;;19.51;33.07;99485.95;105493;1282;111445;-69
2022/04/30 13:08:23;;;;;;;13.40;5.40;;;;;;;19.52;33.24;99480.27;105653;1282;97947;-72
2022/04/30 13:13:40;;;;;;;11.30;4.50;;;;;;;19.56;33.18;99477.55;105619;1282;98002;-70
2022/04/30 13:16:09;;;;;;;10.30;4.90;;;;;;;19.57;33.35;99470.60;105505;1284;98114;-71
2022/04/30 13:18:41;;;;;;;11.10;5.20;;;;;;;19.60;33.25;99472.20;105497;1282;111430;-70
2022/04/30 13:21:10;;;;;;;13.10;5.30;;;;;;;19.63;33.35;99471.61;105735;1283;97756;-71
2022/04/30 13:23:38;;;;;;;11.10;4.90;;;;;;;19.64;33.18;99471.50;105545;1282;107715;-72
2022/04/30 13:26:08;;;;;;;11.80;5.10;;;;;;;19.59;33.10;99468.58;105599;1282;98005;-71
2022/04/30 13:28:38;;;;;;;11.20;5.10;;;;;;;19.57;33.18;99465.34;105624;1282;97902;-69
2022/04/30 13:31:08;;;;;;;10.70;4.90;;;;;;;19.57;33.11;99460.89;105569;1284;111631;-69
2022/04/30 13:33:38;;;;;;;11.60;4.90;;;;;;;19.59;33.08;99460.33;105716;1283;97945;-70
2022/04/30 13:36:09;;;;;;;9.30;4.30;;;;;;;19.60;33.12;99461.14;105731;1283;109692;-70
2022/04/30 13:38:40;;;;;;;10.50;4.80;;;;;;;19.61;33.19;99459.33;105730;1283;97797;-70
2022/04/30 13:41:09;;;;;;;9.00;4.70;;;;;;;19.63;32.93;99457.92;105751;1283;97877;-70
2022/04/30 13:43:37;;;;;;;10.10;4.40;;;;;;;19.56;32.96;99454.51;105664;1283;111683;-69
2022/04/30 13:46:05;;;;;;;10.10;5.00;;;;;;;19.54;33.00;99457.75;105677;1282;97758;-69
2022/04/30 13:48:33;;;;;;;11.00;4.90;;;;;;;19.55;33.09;99453.40;105656;1283;108308;-70
2022/04/30 13:51:04;;;;;;;12.30;5.10;;;;;;;19.57;33.07;99451.71;105680;1283;97905;-70
2022/04/30 13:53:33;;;;;;;10.10;5.00;;;;;;;19.58;33.08;99455.02;105675;1283;97873;-70
2022/04/30 13:56:01;;;;;;;10.60;4.50;;;;;;;19.58;33.01;99454.25;105732;1283;111830;-72
2022/04/30 13:58:29;;;;;;;10.10;4.60;;;;;;;19.59;32.99;99454.19;105657;1281;95522;-71
2022/04/30 14:00:57;;;;;;;11.00;4.70;;;;;;;19.58;32.96;99449.09;105566;1283;107767;-70
2022/04/30 14:03:27;;;;;;;13.80;5.20;;;;;;;19.58;32.94;99449.59;105459;1283;98001;-71
2022/04/30 14:05:57;;;;;;;11.30;4.50;;;;;;;19.57;32.93;99444.88;105523;1282;96018;-71
2022/04/30 14:08:27;;;;;;;11.10;5.00;;;;;;;19.53;32.93;99439.38;105600;1282;112233;-71
2022/04/30 14:10:55;;;;;;;11.50;5.60;;;;;;;19.46;32.92;99443.08;105533;1283;98570;-70
2022/04/30 14:16:10;;;;;;;8.20;4.40;;;;;;;19.25;32.74;99435.21;105599;1283;97928;-71
2022/04/30 14:18:39;;;;;;;10.00;5.00;;;;;;;19.16;32.93;99435.27;105642;1283;97863;-70
2022/04/30 14:21:09;;;;;;;11.30;5.20;;;;;;;19.12;33.06;99434.42;105638;1283;111670;-71
2022/04/30 14:23:41;;;;;;;12.90;5.30;;;;;;;19.09;33.01;99435.08;105693;1282;97858;-70
2022/04/30 14:26:11;;;;;;;13.70;5.30;;;;;;;19.09;32.90;99435.94;105738;1283;107784;-70
2022/04/30 14:28:40;;;;;;;11.50;5.20;;;;;;;19.06;32.87;99428.69;105702;1283;95950;-70
2022/04/30 14:31:08;;;;;;;12.70;5.70;;;;;;;18.99;32.77;99428.84;105788;1283;95278;-71
2022/04/30 14:33:36;;;;;;;10.10;5.10;;;;;;;18.94;32.82;99426.36;105633;1281;110996;-70
2022/04/30 14:36:09;;;;;;;9.90;4.80;;;;;;;18.90;32.82;99427.23;105644;1283;97892;-70
2022/04/30 14:38:37;;;;;;;11.50;5.10;;;;;;;18.86;32.67;99429.94;105628;1282;107952;-71
2022/04/30 14:41:07;;;;;;;10.00;5.20;;;;;;;18.83;32.76;99429.91;105645;1282;97957;-71
2022/04/30 14:43:36;;;;;;;13.20;5.80;;;;;;;18.81;32.79;99429.92;105582;1283;97795;-71
2022/04/30 14:46:04;;;;;;;13.30;5.00;;;;;;;18.80;32.74;99429.54;105650;1282;112353;-71
2022/04/30 14:48:35;;;;;;;9.80;4.60;;;;;;;18.77;32.79;99425.27;105745;1283;97876;-70
2022/04/30 14:51:03;;;;;;;10.80;4.70;;;;;;;18.74;32.71;99426.83;105495;1282;107890;-70
2022/04/30 14:53:32;;;;;;;14.10;4.70;;;;;;;18.76;32.81;99428.80;105618;1282;97991;-71
2022/04/30 14:56:01;;;;;;;11.30;4.70;;;;;;;18.80;32.63;99425.37;105769;1282;97851;-71
2022/04/30 14:58:31;;;;;;;11.80;4.30;;;;;;;18.83;32.81;99425.21;105769;1281;112044;-73
2022/04/30 15:00:59;;;;;;;9.70;4.50;;;;;;;18.85;32.78;99422.48;105543;1283;97925;-72
2022/04/30 15:03:27;;;;;;;12.30;4.80;;;;;;;18.89;32.85;99424.40;105605;1283;107748;-72
2022/04/30 15:05:56;;;;;;;12.10;5.40;;;;;;;18.93;32.87;99419.75;106362;1283;96292;-70
2022/04/30 15:08:25;;;;;;;26.60;13.00;;;;;;;18.98;32.71;99420.58;105793;1283;96365;-69
2022/04/30 15:10:53;;;;;;;18.80;8.40;;;;;;;19.02;32.82;99418.89;105796;1283;112238;-69
2022/04/30 15:13:23;;;;;;;13.90;6.10;;;;;;;19.04;32.75;99418.30;105489;1284;97804;-69
2022/04/30 15:15:51;;;;;;;11.90;5.30;;;;;;;19.04;32.72;99411.79;105729;1282;108249;-69
2022/04/30 15:18:20;;;;;;;12.20;4.80;;;;;;;19.05;32.80;99409.73;105498;1282;97023;-69
2022/04/30 15:20:47;;;;;;;13.40;5.50;;;;;;;19.08;32.66;99410.58;105520;1281;98057;-69
2022/04/30 15:23:15;;;;;;;13.60;5.80;;;;;;;19.08;32.76;99410.70;105588;1283;111443;-70
2022/04/30 15:25:43;;;;;;;12.90;5.40;;;;;;;19.09;32.70;99409.03;107050;1281;96137;-70
2022/04/30 15:28:11;;;;;;;13.10;5.80;;;;;;;19.10;32.87;99407.12;106097;1282;108798;-70
2022/04/30 15:30:41;;;;;;;27.90;13.90;;;;;;;19.12;32.87;99408.35;105500;1281;97975;-70
2022/04/30 15:33:11;;;;;;;23.60;12.70;;;;;;;19.10;32.83;99407.68;105379;1282;97896;-69
2022/04/30 15:35:39;;;;;;;19.70;8.30;;;;;;;19.04;32.82;99411.11;105589;1282;111408;-71
2022/04/30 15:38:07;;;;;;;14.00;6.10;;;;;;;18.99;32.93;99412.39;105553;1281;98545;-70
2022/04/30 15:40:35;;;;;;;13.70;6.10;;;;;;;18.96;32.81;99411.25;105587;1282;107791;-69
2022/04/30 15:43:03;;;;;;;13.40;5.80;;;;;;;18.95;32.95;99411.83;104982;1282;817715;-71
2022/04/30 15:45:33;;;;;;;14.70;5.90;;;;;;;18.95;33.09;99411.49;105603;1282;97872;-67
2022/04/30 15:56:24;;;;;;;14.70;5.80;;;;;;;18.92;33.06;99403.73;105607;1283;98577;-69
2022/04/30 15:58:54;;;;;;;15.80;5.60;;;;;;;18.91;33.11;99404.84;105609;1282;98004;-68
2022/04/30 16:01:28;;;;;;;10.20;5.20;;;;;;;18.93;33.18;99403.03;105558;1283;112406;-67
2022/04/30 16:03:57;;;;;;;15.60;6.60;;;;;;;18.94;33.10;99396.16;105755;1282;97921;-68
2022/04/30 16:06:24;;;;;;;14.70;5.90;;;;;;;18.93;33.10;99400.54;105696;1282;107678;-67
2022/04/30 16:08:52;;;;;;;14.30;6.10;;;;;;;18.93;33.16;99396.09;105623;1282;96347;-70
2022/04/30 16:11:22;;;;;;;14.70;5.80;;;;;;;18.92;33.15;99400.63;105743;1281;95295;-70
2022/04/30 16:13:53;;;;;;;18.00;6.70;;;;;;;18.91;33.25;99400.02;105442;1282;111252;-71
2022/04/30 16:16:21;;;;;;;16.70;6.20;;;;;;;18.88;33.24;99399.52;105673;1281;95964;-70
2022/04/30 16:18:57;;;;;;;;;;;;;;;18.88;33.29;99399.23;105430;1282;108216;-70
2022/04/30 16:21:28;;;;;;;11.80;5.10;;;;;;;18.83;33.26;99399.96;105651;1283;95981;-70